Time;durP1;ratioP1;P1;durP2;ratioP2;P2;SDS_P1;SDS_P2;PMS_P1;PMS_P2;Temp;Humidity;BMP_temperature;BMP_pressure;BME280_temperature;BME280_humidity;BME280_pressure;Samples;Min_cycle;Max_cycle;Signal;HPM_P1;HPM_P2
2023/08/17 00:00:19;;;;;;;1.37;1.27;;;18.40;99.90;17.90;101059;;;;593987;237;24048;-79
2023/08/17 00:02:47;;;;;;;1.20;1.20;;;18.40;99.90;17.90;101059;;;;595076;237;23057;-76
2023/08/17 00:05:15;;;;;;;1.80;1.10;;;18.40;99.90;17.90;101061;;;;595181;237;24057;-77
2023/08/17 00:07:43;;;;;;;4.23;1.43;;;18.50;99.90;17.90;101057;;;;594812;237;24035;-77
2023/08/17 00:10:11;;;;;;;2.93;1.40;;;18.50;99.90;18.00;101064;;;;595396;237;24010;-83
2023/08/17 00:12:40;;;;;;;2.47;1.50;;;18.50;99.90;18.00;101063;;;;605126;237;23047;-87
2023/08/17 00:15:12;;;;;;;1.97;1.47;;;18.50;99.90;18.00;101050;;;;595543;237;24009;-82
2023/08/17 00:17:36;;;;;;;1.90;1.23;;;18.50;99.90;18.00;101059;;;;592779;237;24073;-87
2023/08/17 00:20:09;;;;;;;2.13;1.67;;;18.60;99.90;18.00;101049;;;;595257;237;24029;-84
2023/08/17 00:22:33;;;;;;;1.73;1.50;;;18.50;99.90;17.90;101059;;;;594056;237;24049;-84
2023/08/17 00:25:04;;;;;;;2.93;1.40;;;18.50;99.90;17.90;101050;;;;594570;237;24049;-84
2023/08/17 00:27:29;;;;;;;3.43;1.80;;;18.40;99.90;17.80;101049;;;;594306;237;24115;-86
2023/08/17 00:29:57;;;;;;;4.33;1.30;;;18.40;99.90;17.80;101051;;;;594781;237;24063;-84
2023/08/17 00:32:26;;;;;;;4.10;1.37;;;18.30;99.90;17.70;101050;;;;594602;237;24048;-87
2023/08/17 00:34:54;;;;;;;2.53;1.23;;;18.20;99.90;17.70;101047;;;;594940;237;24041;-86
2023/08/17 00:37:22;;;;;;;1.43;1.20;;;18.20;99.90;17.60;101040;;;;594655;237;24019;-78
2023/08/17 00:39:50;;;;;;;6.37;1.67;;;18.20;99.90;17.50;101047;;;;593622;237;24049;-77
2023/08/17 00:42:18;;;;;;;2.67;1.30;;;18.10;99.90;17.40;101041;;;;593810;237;24014;-77
2023/08/17 00:44:46;;;;;;;3.30;1.60;;;18.00;99.90;17.40;101043;;;;593714;237;24061;-85
2023/08/17 00:47:18;;;;;;;2.40;1.67;;;17.90;99.90;17.30;101050;;;;594051;237;24011;-81
2023/08/17 00:49:43;;;;;;;1.60;1.50;;;17.80;99.90;17.20;101046;;;;593621;237;24042;-76
2023/08/17 00:52:11;;;;;;;3.40;1.83;;;17.70;99.90;17.20;101048;;;;588881;237;34896;-78
2023/08/17 00:54:39;;;;;;;5.33;1.30;;;17.70;99.90;17.10;101037;;;;594505;237;24041;-81
2023/08/17 00:57:08;;;;;;;2.73;1.50;;;17.70;99.90;17.00;101030;;;;593864;237;24123;-77
2023/08/17 00:59:35;;;;;;;1.43;1.10;;;17.60;99.90;17.00;101029;;;;593412;237;24093;-79
2023/08/17 01:02:07;;;;;;;1.53;1.43;;;17.50;99.90;16.90;101032;;;;593881;237;24108;-79
2023/08/17 01:04:31;;;;;;;1.60;1.50;;;17.50;99.90;16.80;101032;;;;603331;237;24051;-76
2023/08/17 01:07:02;;;;;;;2.13;1.40;;;17.40;99.90;16.80;101032;;;;603231;237;23051;-77
2023/08/17 01:09:27;;;;;;;4.50;1.50;;;17.30;99.90;16.70;101035;;;;593588;237;24129;-78
2023/08/17 01:12:12;;;;;;;2.60;2.03;;;17.30;99.90;16.60;101036;;;;593925;237;24038;-77
2023/08/17 01:14:43;;;;;;;1.77;1.67;;;17.20;99.90;16.50;101042;;;;594870;237;24075;-80
2023/08/17 01:17:11;;;;;;;4.50;1.57;;;17.10;99.90;16.50;101031;;;;594754;237;24105;-79
2023/08/17 01:19:42;;;;;;;1.67;1.40;;;17.00;99.90;16.40;101037;;;;604078;237;24063;-77
2023/08/17 01:22:07;;;;;;;1.70;1.40;;;17.00;99.90;16.30;101028;;;;594696;237;24041;-78
2023/08/17 01:24:35;;;;;;;2.23;1.37;;;16.90;99.90;16.30;101025;;;;594814;237;24027;-81
2023/08/17 01:27:03;;;;;;;1.57;1.47;;;16.80;99.90;16.20;101021;;;;594597;237;24037;-81
2023/08/17 01:29:33;;;;;;;3.33;1.47;;;16.80;99.90;16.20;101029;;;;594633;237;24058;-79
2023/08/17 01:32:10;;;;;;;2.10;1.80;;;16.80;99.90;16.10;101030;;;;594285;237;24038;-79
2023/08/17 01:34:42;;;;;;;3.27;2.00;;;16.70;99.90;16.10;101028;;;;603099;237;24031;-78
2023/08/17 01:37:14;;;;;;;5.03;1.90;;;16.60;99.90;16.00;101037;;;;593626;237;24077;-77
2023/08/17 01:39:41;;;;;;;2.53;1.30;;;16.60;99.90;16.00;101031;;;;602806;237;24135;-78
2023/08/17 01:42:09;;;;;;;2.73;1.57;;;16.60;99.90;15.90;101029;;;;593602;237;24027;-77
2023/08/17 01:44:37;;;;;;;2.37;1.47;;;16.50;99.90;15.90;101035;;;;593661;237;24061;-76
2023/08/17 01:47:08;;;;;;;3.80;1.70;;;16.50;99.90;15.90;101031;;;;594123;237;24092;-82
2023/08/17 01:49:33;;;;;;;1.50;1.40;;;16.50;99.90;15.80;101039;;;;603568;237;24060;-86
2023/08/17 01:52:01;;;;;;;1.87;1.50;;;16.40;99.90;15.80;101035;;;;594303;237;24137;-76
2023/08/17 01:54:29;;;;;;;7.70;1.80;;;16.30;99.90;15.70;101033;;;;593934;237;24045;-76
2023/08/17 01:56:57;;;;;;;3.03;1.50;;;16.30;99.90;15.70;101020;;;;593947;237;24018;-79
2023/08/17 01:59:25;;;;;;;1.63;1.53;;;16.30;99.90;15.70;101024;;;;593522;237;24051;-76
2023/08/17 02:01:53;;;;;;;2.23;1.30;;;16.30;99.90;15.70;101029;;;;594015;237;24067;-77
2023/08/17 02:04:21;;;;;;;1.90;1.63;;;16.20;99.90;15.60;101034;;;;593949;237;24148;-77
2023/08/17 02:06:49;;;;;;;3.07;1.70;;;16.20;99.90;15.60;101032;;;;593951;237;24035;-77
2023/08/17 02:09:17;;;;;;;4.57;1.70;;;16.20;99.90;15.60;101030;;;;593964;237;24031;-77
2023/08/17 02:11:45;;;;;;;2.77;1.80;;;16.20;99.90;15.50;101037;;;;593892;237;24172;-76
2023/08/17 02:14:13;;;;;;;4.00;1.73;;;16.10;99.90;15.50;101042;;;;593897;237;24022;-76
2023/08/17 02:16:42;;;;;;;7.17;1.63;;;16.10;99.90;15.50;101046;;;;593909;237;24091;-76
2023/08/17 02:19:10;;;;;;;4.20;1.67;;;16.10;99.90;15.50;101046;;;;593879;237;24120;-77
2023/08/17 02:21:38;;;;;;;2.20;1.97;;;16.10;99.90;15.40;101052;;;;593927;237;24023;-78
2023/08/17 02:24:06;;;;;;;4.10;2.03;;;16.10;99.90;15.40;101053;;;;593506;237;24049;-77
2023/08/17 02:26:34;;;;;;;2.43;1.60;;;16.10;99.90;15.40;101058;;;;594784;237;24017;-77
2023/08/17 02:29:02;;;;;;;4.57;1.63;;;16.00;99.90;15.40;101060;;;;594522;237;24127;-76
2023/08/17 02:31:31;;;;;;;5.13;1.80;;;16.00;99.90;15.40;101050;;;;592159;237;24040;-76
2023/08/17 02:34:04;;;;;;;4.20;1.73;;;16.00;99.90;15.40;101053;;;;603743;237;24076;-77
2023/08/17 02:36:30;;;;;;;3.17;2.10;;;16.00;99.90;15.40;101046;;;;593951;237;24034;-76
2023/08/17 02:38:55;;;;;;;2.93;1.57;;;16.10;99.90;15.50;101044;;;;593270;237;24033;-76
2023/08/17 02:41:23;;;;;;;6.67;1.80;;;16.10;99.90;15.50;101049;;;;594013;237;24026;-76
2023/08/17 02:43:51;;;;;;;2.13;1.93;;;16.10;99.90;15.60;101048;;;;594015;237;24048;-76
2023/08/17 02:46:19;;;;;;;3.67;1.60;;;16.20;99.90;15.60;101048;;;;593847;237;24041;-76
2023/08/17 02:48:47;;;;;;;3.60;1.80;;;16.20;99.90;15.70;101045;;;;594059;237;24033;-77
2023/08/17 02:51:15;;;;;;;1.77;1.40;;;16.30;99.90;15.70;101039;;;;593859;237;24067;-76
2023/08/17 02:53:43;;;;;;;1.40;1.30;;;16.30;99.90;15.70;101045;;;;594286;237;24023;-76
2023/08/17 02:56:14;;;;;;;4.73;1.80;;;16.30;99.90;15.80;101042;;;;594357;237;24095;-77
2023/08/17 02:58:42;;;;;;;4.10;1.80;;;16.30;99.90;15.80;101050;;;;593946;237;24162;-77
2023/08/17 03:01:10;;;;;;;1.87;1.40;;;16.40;99.90;15.80;101055;;;;593865;237;24077;-79
2023/08/17 03:03:37;;;;;;;4.23;1.30;;;16.40;99.90;15.80;101052;;;;593546;237;24039;-80
2023/08/17 03:06:06;;;;;;;2.33;1.27;;;16.40;99.90;15.90;101051;;;;593741;237;24011;-78
2023/08/17 03:08:34;;;;;;;3.30;1.53;;;16.50;99.90;15.90;101048;;;;593585;237;24029;-78
2023/08/17 03:11:02;;;;;;;2.93;1.73;;;16.50;99.90;15.90;101042;;;;593443;237;24066;-78
2023/08/17 03:13:30;;;;;;;4.10;1.40;;;16.50;99.90;16.00;101055;;;;593656;237;24027;-77
2023/08/17 03:15:58;;;;;;;2.63;1.33;;;16.50;99.90;16.00;101062;;;;593488;237;24055;-81
2023/08/17 03:18:26;;;;;;;2.60;1.73;;;16.60;99.90;16.00;101049;;;;593641;237;24029;-80
2023/08/17 03:20:54;;;;;;;1.30;1.20;;;16.60;99.90;16.00;101047;;;;593577;237;24016;-76
2023/08/17 03:23:22;;;;;;;7.87;1.10;;;16.60;99.90;16.10;101052;;;;593832;237;24036;-79
2023/08/17 03:25:56;;;;;;;1.93;1.17;;;16.60;99.90;16.10;101064;;;;594065;237;24077;-77
2023/08/17 03:28:24;;;;;;;2.43;1.20;;;16.70;99.90;16.10;101059;;;;593471;237;24080;-79
2023/08/17 03:30:48;;;;;;;1.33;1.23;;;16.70;99.90;16.20;101049;;;;593611;237;24062;-77
2023/08/17 03:33:16;;;;;;;1.50;1.17;;;16.70;99.90;16.20;101053;;;;593611;237;24085;-77
2023/08/17 03:35:44;;;;;;;1.20;1.20;;;16.80;99.90;16.30;101047;;;;593947;237;24033;-79
2023/08/17 03:38:12;;;;;;;3.37;1.20;;;16.80;99.90;16.30;101044;;;;594993;237;24014;-77
2023/08/17 03:40:40;;;;;;;2.00;1.30;;;16.90;99.90;16.40;101040;;;;604698;237;24015;-81
2023/08/17 03:43:08;;;;;;;2.40;1.50;;;16.90;99.90;16.40;101035;;;;604179;237;24112;-78
2023/08/17 03:45:36;;;;;;;2.20;1.07;;;17.00;99.90;16.40;101032;;;;594479;237;24021;-77
2023/08/17 03:48:06;;;;;;;5.33;1.43;;;17.00;99.90;16.50;101028;;;;594324;237;24049;-83
2023/08/17 03:50:32;;;;;;;1.23;1.23;;;17.10;99.90;16.50;101032;;;;591758;237;24130;-80
2023/08/17 03:52:59;;;;;;;2.40;1.50;;;17.10;99.90;16.50;101021;;;;594395;237;24053;-85
2023/08/17 03:55:28;;;;;;;1.73;1.00;;;17.20;99.90;16.60;101023;;;;594203;237;24105;-83
2023/08/17 03:57:57;;;;;;;1.97;1.20;;;17.20;99.90;16.60;101023;;;;594234;237;24060;-81
2023/08/17 04:00:25;;;;;;;2.47;1.30;;;17.20;99.90;16.60;101029;;;;594642;237;24075;-78
2023/08/17 04:02:53;;;;;;;2.00;1.40;;;17.20;99.90;16.60;101039;;;;593914;237;24113;-78
2023/08/17 04:05:21;;;;;;;3.20;1.03;;;17.20;99.90;16.70;101043;;;;594279;237;24037;-78
2023/08/17 04:07:48;;;;;;;3.90;1.00;;;17.20;99.90;16.70;101046;;;;593886;237;24072;-77
2023/08/17 04:10:16;;;;;;;11.13;1.80;;;17.30;99.90;16.70;101050;;;;594267;237;24022;-77
2023/08/17 04:12:44;;;;;;;4.57;1.40;;;17.30;99.90;16.80;101048;;;;593807;237;24084;-78
2023/08/17 04:15:12;;;;;;;4.17;0.93;;;17.40;99.90;16.90;101048;;;;593453;237;23037;-79
2023/08/17 04:17:40;;;;;;;9.90;1.90;;;17.40;99.90;16.90;101045;;;;593656;237;24037;-78
2023/08/17 04:20:08;;;;;;;3.40;1.37;;;17.40;99.90;16.90;101039;;;;593600;237;24058;-79
2023/08/17 04:22:36;;;;;;;2.57;0.93;;;17.50;99.90;17.00;101043;;;;593534;237;24030;-78
2023/08/17 04:25:07;;;;;;;2.67;1.03;;;17.50;99.90;17.00;101042;;;;594079;237;24072;-86
2023/08/17 04:27:36;;;;;;;9.77;1.80;;;17.60;99.90;17.00;101031;;;;593811;237;24086;-79
2023/08/17 04:30:01;;;;;;;3.90;1.53;;;17.70;99.90;17.10;101035;;;;593974;237;24026;-79
2023/08/17 04:32:30;;;;;;;1.40;1.30;;;17.70;99.90;17.10;101039;;;;593506;237;24028;-78
2023/08/17 04:35:01;;;;;;;3.73;1.07;;;17.70;99.90;17.20;101058;;;;593938;237;24038;-79
2023/08/17 04:37:26;;;;;;;1.00;1.00;;;17.70;99.90;17.20;101071;;;;593691;237;24022;-82
2023/08/17 04:39:54;;;;;;;1.50;1.33;;;17.70;99.90;17.20;101079;;;;594161;237;23094;-78
2023/08/17 04:42:22;;;;;;;12.73;1.77;;;17.80;99.90;17.30;101084;;;;593535;237;24034;-77
2023/08/17 04:44:49;;;;;;;14.70;2.17;;;17.80;99.90;17.30;101081;;;;593455;237;24066;-81
2023/08/17 04:47:17;;;;;;;10.53;1.87;;;17.90;99.90;17.40;101092;;;;593561;237;24026;-78
2023/08/17 04:49:48;;;;;;;7.53;1.53;;;17.90;99.90;17.50;101104;;;;594880;237;24154;-79
2023/08/17 04:52:13;;;;;;;5.13;1.40;;;18.00;99.90;17.50;101114;;;;592293;237;24025;-82
2023/08/17 04:54:41;;;;;;;5.83;1.63;;;18.10;99.90;17.50;101126;;;;594450;237;24036;-83
2023/08/17 04:57:10;;;;;;;1.93;1.63;;;18.10;99.90;17.60;101142;;;;594109;237;27327;-78
2023/08/17 04:59:40;;;;;;;6.33;1.67;;;18.10;99.90;17.60;101147;;;;594613;237;24093;-84
2023/08/17 05:02:08;;;;;;;3.97;1.40;;;18.20;99.90;17.70;101147;;;;595263;237;24030;-76
2023/08/17 05:04:38;;;;;;;1.97;1.87;;;18.20;99.90;17.60;101150;;;;595068;237;24050;-83
2023/08/17 05:07:03;;;;;;;3.57;1.50;;;18.20;99.90;17.70;101148;;;;593677;237;23101;-84
2023/08/17 05:09:32;;;;;;;8.87;1.90;;;18.20;99.90;17.70;101150;;;;594369;237;23061;-85
2023/08/17 05:12:01;;;;;;;2.60;1.40;;;18.30;99.90;17.70;101137;;;;594116;237;24063;-79
2023/08/17 05:14:29;;;;;;;7.77;1.97;;;18.20;99.90;17.70;101124;;;;594158;237;24069;-81
2023/08/17 05:16:57;;;;;;;1.40;1.30;;;18.30;99.90;17.70;101128;;;;594649;237;24052;-79
2023/08/17 05:19:25;;;;;;;6.27;1.77;;;18.30;99.90;17.70;101132;;;;595172;237;24024;-78
2023/08/17 05:21:53;;;;;;;5.60;1.40;;;18.30;99.90;17.70;101119;;;;594307;237;24028;-83
2023/08/17 05:24:20;;;;;;;4.47;2.10;;;18.30;99.90;17.70;101102;;;;593899;237;24058;-85
2023/08/17 05:26:48;;;;;;;4.90;1.53;;;18.30;99.90;17.70;101103;;;;593536;237;24074;-80
2023/08/17 05:29:16;;;;;;;4.60;1.83;;;18.30;99.90;17.60;101109;;;;593979;237;24115;-78
2023/08/17 05:31:44;;;;;;;5.50;2.07;;;18.10;99.90;17.50;101122;;;;594133;237;23043;-77
2023/08/17 05:34:13;;;;;;;5.33;2.20;;;18.00;99.90;17.40;101107;;;;593701;237;24010;-78
2023/08/17 05:36:40;;;;;;;3.27;1.90;;;17.90;99.90;17.30;101113;;;;593725;237;24069;-75
2023/08/17 05:39:09;;;;;;;5.40;3.10;;;17.80;99.90;17.20;101100;;;;588716;237;34950;-77
2023/08/17 05:41:36;;;;;;;5.17;2.37;;;17.70;99.90;17.10;101077;;;;593659;237;23095;-79
2023/08/17 05:44:06;;;;;;;5.50;2.30;;;17.60;99.90;17.00;101064;;;;594419;237;24070;-85
2023/08/17 05:46:32;;;;;;;8.90;2.27;;;17.50;99.90;16.90;101051;;;;594316;237;24070;-83
2023/08/17 05:48:59;;;;;;;10.03;2.83;;;17.40;99.90;16.80;101040;;;;594415;237;24079;-76
2023/08/17 05:51:27;;;;;;;8.20;2.40;;;17.30;99.90;16.70;101027;;;;603083;237;24034;-78
2023/08/17 05:53:56;;;;;;;4.73;2.63;;;17.20;99.90;16.50;101015;;;;593602;237;24020;-77
2023/08/17 05:56:23;;;;;;;8.43;2.80;;;17.10;99.90;16.40;101004;;;;593467;237;24075;-77
2023/08/17 05:58:51;;;;;;;3.60;2.80;;;16.90;99.90;16.40;101009;;;;603044;237;24034;-83
2023/08/17 06:01:19;;;;;;;8.13;2.70;;;16.80;99.90;16.30;100993;;;;595547;237;24037;-80
2023/08/17 06:03:47;;;;;;;5.80;2.67;;;16.80;99.90;16.20;100985;;;;595199;237;24080;-82
2023/08/17 06:06:15;;;;;;;8.37;2.90;;;16.70;99.90;16.20;100982;;;;594531;237;24027;-79
2023/08/17 06:08:43;;;;;;;5.53;2.87;;;16.70;99.90;16.10;100979;;;;594505;237;24026;-83
2023/08/17 06:11:11;;;;;;;6.00;2.70;;;16.60;99.90;16.10;100994;;;;594222;237;24041;-82
2023/08/17 06:13:39;;;;;;;7.53;3.03;;;16.60;99.90;16.10;101010;;;;594041;237;24029;-84
2023/08/17 06:16:07;;;;;;;7.77;2.80;;;16.60;99.90;16.00;101022;;;;594183;237;24061;-82
2023/08/17 06:18:34;;;;;;;4.03;2.90;;;16.60;99.90;16.10;101027;;;;593977;237;24043;-83
2023/08/17 06:21:06;;;;;;;4.20;2.83;;;16.60;99.90;16.10;101031;;;;594080;237;24015;-81
2023/08/17 06:23:31;;;;;;;4.40;2.80;;;16.60;99.90;16.10;101034;;;;593726;237;24089;-78
2023/08/17 06:26:02;;;;;;;10.63;3.13;;;16.60;99.90;16.10;101057;;;;598285;237;24058;-82
2023/08/17 06:28:31;;;;;;;4.67;3.63;;;16.70;99.90;16.20;101068;;;;593832;237;24057;-81
2023/08/17 06:30:58;;;;;;;8.57;3.83;;;16.70;99.90;16.30;101064;;;;593341;237;25151;-81
2023/08/17 06:33:23;;;;;;;10.50;4.13;;;16.80;99.90;16.40;101066;;;;593723;237;24042;-79
2023/08/17 06:35:51;;;;;;;6.07;3.47;;;16.90;99.90;16.50;101070;;;;593856;237;24056;-83
2023/08/17 06:38:19;;;;;;;6.53;4.23;;;17.00;99.90;16.60;101071;;;;593799;237;24063;-81
2023/08/17 06:40:47;;;;;;;9.20;4.73;;;17.00;99.90;16.60;101085;;;;593717;237;24312;-80
2023/08/17 06:43:14;;;;;;;8.70;4.83;;;17.10;99.90;16.70;101087;;;;593566;237;24096;-78
2023/08/17 06:45:42;;;;;;;12.23;5.80;;;17.10;99.90;16.80;101081;;;;593707;237;24022;-80
2023/08/17 06:48:13;;;;;;;7.37;4.73;;;17.20;99.90;16.90;101096;;;;593518;237;24014;-80
2023/08/17 06:50:38;;;;;;;7.43;4.80;;;17.30;99.90;17.00;101104;;;;593390;237;24106;-80
2023/08/17 06:53:06;;;;;;;8.87;5.00;;;17.40;99.90;17.20;101103;;;;593715;237;24112;-81
2023/08/17 06:55:34;;;;;;;9.47;5.10;;;17.60;99.90;17.40;101110;;;;593587;237;24021;-80
2023/08/17 06:58:03;;;;;;;14.73;6.40;;;18.00;99.90;17.60;101112;;;;591553;237;24042;-78
2023/08/17 07:00:31;;;;;;;8.63;5.47;;;18.20;99.90;17.80;101099;;;;593947;237;24047;-80
2023/08/17 07:03:00;;;;;;;11.13;5.77;;;18.30;99.90;17.90;101104;;;;594328;237;24100;-79
2023/08/17 07:05:28;;;;;;;8.53;5.20;;;18.30;99.90;17.90;101104;;;;594531;237;24110;-79
2023/08/17 07:07:57;;;;;;;9.27;6.07;;;18.30;99.90;17.80;101112;;;;594073;237;23142;-79
2023/08/17 07:10:27;;;;;;;12.50;6.53;;;18.30;99.90;17.90;101124;;;;593777;237;24050;-81
2023/08/17 07:12:53;;;;;;;11.13;5.53;;;18.20;99.90;17.90;101117;;;;592715;237;23069;-79
2023/08/17 07:15:20;;;;;;;11.60;5.97;;;18.30;99.90;17.90;101128;;;;604053;237;24044;-79
2023/08/17 07:17:49;;;;;;;14.20;5.97;;;18.30;99.90;17.90;101122;;;;594601;237;24136;-79
2023/08/17 07:20:18;;;;;;;8.50;5.97;;;18.30;99.90;17.90;101122;;;;594696;237;23054;-79
2023/08/17 07:22:46;;;;;;;7.30;5.67;;;18.30;99.90;18.00;101128;;;;594568;237;24116;-80
2023/08/17 07:25:14;;;;;;;11.87;5.57;;;18.30;99.90;18.10;101128;;;;594809;237;24010;-81
2023/08/17 07:27:44;;;;;;;8.50;5.20;;;18.40;99.90;18.20;101125;;;;603992;237;24103;-80
2023/08/17 07:30:09;;;;;;;13.93;5.93;;;18.50;99.90;18.30;101133;;;;593704;237;23106;-81
2023/08/17 07:32:37;;;;;;;12.70;5.80;;;18.60;99.90;18.30;101141;;;;594111;237;24010;-79
2023/08/17 07:35:05;;;;;;;10.63;5.87;;;18.70;99.90;18.40;101145;;;;594411;237;24084;-84
2023/08/17 07:37:34;;;;;;;13.90;5.27;;;18.80;99.90;18.40;101146;;;;603380;237;24045;-81
2023/08/17 07:40:06;;;;;;;11.50;5.77;;;18.80;99.90;18.50;101136;;;;593784;237;23059;-82
2023/08/17 07:42:33;;;;;;;13.07;5.00;;;18.80;99.90;18.50;101140;;;;593818;237;24208;-79
2023/08/17 07:45:05;;;;;;;11.23;4.70;;;18.80;99.90;18.50;101134;;;;593923;237;24039;-84
2023/08/17 07:47:29;;;;;;;9.00;4.40;;;18.90;99.90;18.60;101144;;;;602635;237;23109;-82
2023/08/17 07:49:57;;;;;;;10.03;4.77;;;18.90;99.90;18.60;101142;;;;593762;237;23110;-83
2023/08/17 07:52:25;;;;;;;11.20;5.27;;;19.00;99.90;18.70;101146;;;;593588;237;24019;-81
2023/08/17 07:54:53;;;;;;;12.37;4.50;;;19.00;99.90;18.90;101147;;;;593777;237;24040;-80
2023/08/17 07:57:22;;;;;;;6.00;4.73;;;19.20;99.90;19.10;101156;;;;593835;237;24041;-78
2023/08/17 07:59:51;;;;;;;6.67;4.50;;;19.60;99.90;19.40;101143;;;;594377;237;23108;-81
2023/08/17 08:02:19;;;;;;;8.17;4.77;;;19.60;99.90;19.80;101152;;;;593837;237;23274;-79
2023/08/17 08:04:47;;;;;;;11.30;4.90;;;20.00;99.90;20.30;101157;;;;593572;237;24061;-82
2023/08/17 08:07:15;;;;;;;6.83;3.13;;;20.50;99.90;20.50;101153;;;;593785;237;24022;-80
2023/08/17 08:09:43;;;;;;;6.93;3.77;;;20.90;99.90;21.10;101153;;;;593654;237;24022;-82
2023/08/17 08:12:10;;;;;;;4.83;3.03;;;21.30;99.90;21.70;101155;;;;593702;237;24030;-78
2023/08/17 08:14:38;;;;;;;3.83;2.60;;;21.90;99.90;22.20;101155;;;;593826;237;24033;-78
2023/08/17 08:17:06;;;;;;;6.53;2.80;;;22.50;99.90;23.90;101145;;;;593762;237;24037;-78
2023/08/17 08:19:34;;;;;;;3.30;1.70;;;24.00;99.90;26.10;101150;;;;593907;237;23029;-78
2023/08/17 08:22:02;;;;;;;2.03;1.83;;;26.40;99.90;26.70;101153;;;;593811;237;23039;-79
2023/08/17 08:24:33;;;;;;;5.70;2.00;;;27.10;99.90;26.50;101144;;;;595125;237;23086;-79
2023/08/17 08:26:58;;;;;;;3.17;2.03;;;26.90;99.90;27.30;101150;;;;595204;237;23036;-82
2023/08/17 08:29:26;;;;;;;1.62;1.40;;;27.40;99.90;28.30;101157;;;;604400;237;23118;-80
2023/08/17 08:31:54;;;;;;;4.35;1.52;;;28.40;99.90;29.60;101169;;;;595154;237;23036;-84
2023/08/17 08:34:22;;;;;;;3.37;1.80;;;29.80;99.90;30.80;101161;;;;595079;237;23032;-82
2023/08/17 08:36:50;;;;;;;2.45;1.45;;;30.90;99.90;32.30;101156;;;;594885;237;23072;-79
2023/08/17 08:39:18;;;;;;;3.15;1.65;;;32.30;99.90;34.20;101150;;;;594593;237;23047;-82
2023/08/17 08:41:45;;;;;;;4.65;1.37;;;34.20;99.90;35.00;101144;;;;594323;237;23059;-86
2023/08/17 08:44:13;;;;;;;1.87;1.40;;;35.50;99.90;35.10;101127;;;;594440;237;23043;-84
2023/08/17 08:46:42;;;;;;;3.15;1.75;;;35.90;99.90;35.70;101118;;;;594530;237;23056;-87
2023/08/17 08:49:09;;;;;;;3.70;1.37;;;36.30;99.90;35.90;101113;;;;594738;237;23038;-84
2023/08/17 08:51:37;;;;;;;2.45;1.85;;;36.70;99.70;35.20;101106;;;;594658;237;23070;-87
2023/08/17 08:54:06;;;;;;;2.25;1.48;;;36.40;93.90;34.50;101106;;;;594510;237;23039;-85
2023/08/17 08:56:36;;;;;;;1.70;1.45;;;35.70;88.70;33.80;101107;;;;594117;237;24057;-85
2023/08/17 08:59:07;;;;;;;2.12;1.77;;;35.00;80.30;33.10;101107;;;;599231;237;23055;-85
2023/08/17 09:01:32;;;;;;;2.15;1.67;;;34.20;76.20;32.20;101112;;;;593806;237;23053;-87
2023/08/17 09:04:02;;;;;;;1.52;1.25;;;33.40;80.00;31.90;101117;;;;593952;237;23040;-86
2023/08/17 09:06:30;;;;;;;2.08;1.25;;;32.90;85.90;31.70;101110;;;;593997;237;23056;-83
2023/08/17 09:09:01;;;;;;;2.22;1.17;;;32.50;83.90;31.30;101108;;;;593606;237;23044;-85
2023/08/17 09:11:26;;;;;;;2.25;1.77;;;32.00;82.70;30.70;101113;;;;593833;237;23051;-80
2023/08/17 09:13:55;;;;;;;1.67;1.35;;;30.80;84.50;30.00;101106;;;;594021;237;23107;-84
2023/08/17 09:16:27;;;;;;;3.70;1.37;;;30.10;84.40;29.30;101119;;;;593805;237;23036;-82
2023/08/17 09:18:55;;;;;;;2.67;1.65;;;29.40;87.80;28.60;101113;;;;593841;237;24049;-83
2023/08/17 09:21:23;;;;;;;4.10;1.45;;;29.30;87.70;28.20;101117;;;;593861;237;23058;-85
2023/08/17 09:23:54;;;;;;;3.58;1.30;;;28.30;90.60;27.70;101109;;;;593604;237;24062;-79
2023/08/17 09:26:26;;;;;;;4.32;1.60;;;28.30;90.60;27.00;101118;;;;603049;237;23036;-79
2023/08/17 09:28:54;;;;;;;6.03;1.80;;;27.10;93.30;26.50;101115;;;;599256;237;23055;-81
2023/08/17 09:31:22;;;;;;;4.00;1.62;;;27.00;93.30;25.90;101117;;;;598238;237;23189;-78
2023/08/17 09:33:56;;;;;;;4.85;2.30;;;26.50;94.80;25.50;101117;;;;587615;237;34924;-85
2023/08/17 09:36:22;;;;;;;2.17;1.10;;;25.70;97.80;25.20;101115;;;;594976;237;23228;-78
2023/08/17 09:38:53;;;;;;;2.40;1.13;;;25.70;97.70;25.10;101122;;;;594771;237;23086;-79
2023/08/17 09:41:20;;;;;;;4.07;1.30;;;25.50;98.80;25.00;101126;;;;599986;237;24055;-78
2023/08/17 09:43:45;;;;;;;2.73;1.27;;;25.30;99.90;25.10;101123;;;;594013;237;23047;-78
2023/08/17 09:46:13;;;;;;;1.87;1.40;;;25.30;99.90;25.10;101120;;;;594047;237;23117;-78
2023/08/17 09:48:41;;;;;;;1.90;1.10;;;25.40;99.90;25.10;101125;;;;594069;237;23123;-86
2023/08/17 09:51:09;;;;;;;2.63;0.90;;;25.40;99.90;25.10;101122;;;;593982;237;23050;-83
2023/08/17 09:53:37;;;;;;;4.50;1.30;;;25.30;99.90;25.00;101113;;;;593969;237;23165;-84
2023/08/17 09:56:07;;;;;;;1.10;1.07;;;25.10;99.90;24.90;101111;;;;594041;237;24047;-80
2023/08/17 09:58:34;;;;;;;1.17;1.00;;;25.00;99.90;24.70;101114;;;;593704;237;23098;-80
2023/08/17 10:01:02;;;;;;;1.33;1.00;;;25.00;99.90;24.60;101122;;;;593731;237;24108;-81
2023/08/17 10:03:34;;;;;;;2.40;1.30;;;24.90;99.90;24.50;101117;;;;593805;237;24099;-81
2023/08/17 10:06:00;;;;;;;1.90;1.47;;;24.80;99.90;24.50;101116;;;;593583;237;23054;-82
2023/08/17 10:08:28;;;;;;;2.97;1.23;;;24.80;99.90;24.50;101118;;;;594128;237;24026;-84
2023/08/17 10:10:56;;;;;;;4.43;1.57;;;24.70;99.90;24.50;101110;;;;594083;237;24099;-85
2023/08/17 10:13:36;;;;;;;5.13;1.40;;;24.70;99.90;24.60;101102;;;;603150;237;23114;-81
2023/08/17 10:16:07;;;;;;;2.03;1.00;;;24.80;99.90;24.80;101105;;;;602713;237;23055;-85
2023/08/17 10:18:52;;;;;;;1.57;1.10;;;25.00;99.90;25.10;101112;;;;595539;237;23100;-84
2023/08/17 10:21:26;;;;;;;2.27;1.30;;;25.30;99.90;25.40;101117;;;;593423;237;23027;-85
2023/08/17 10:23:54;;;;;;;3.87;1.70;;;25.60;99.90;25.90;101121;;;;594088;237;24116;-85
2023/08/17 10:26:22;;;;;;;2.70;1.70;;;26.10;99.90;26.40;101120;;;;599181;237;23088;-83
2023/08/17 10:28:50;;;;;;;1.25;1.08;;;26.50;99.90;26.60;101127;;;;593719;237;23047;-84
2023/08/17 10:31:21;;;;;;;1.80;1.13;;;26.80;99.90;26.80;101120;;;;598620;237;23062;-84
2023/08/17 10:33:47;;;;;;;3.10;1.27;;;27.00;99.90;26.90;101120;;;;593599;237;23058;-86
2023/08/17 10:36:13;;;;;;;1.98;1.40;;;27.20;99.90;27.50;101119;;;;593836;237;23045;-86
2023/08/17 10:38:41;;;;;;;1.95;1.30;;;27.70;99.90;28.30;101124;;;;593794;237;23162;-84
2023/08/17 10:41:12;;;;;;;4.82;1.35;;;28.50;99.90;28.70;101116;;;;603264;237;23067;-84
2023/08/17 10:43:55;;;;;;;1.73;1.27;;;29.20;99.90;28.80;101111;;;;593241;237;23096;-84
2023/08/17 10:46:23;;;;;;;2.58;1.05;;;29.50;99.50;28.70;101122;;;;601039;237;23081;-84
2023/08/17 10:48:51;;;;;;;1.17;1.15;;;29.50;95.60;28.20;101108;;;;593706;237;24138;-79
2023/08/17 10:51:19;;;;;;;2.35;1.00;;;29.00;94.60;27.60;101114;;;;603725;237;23070;-78
2023/08/17 10:53:47;;;;;;;5.28;1.70;;;28.00;97.10;27.30;101114;;;;594082;237;23086;-78
2023/08/17 10:56:19;;;;;;;2.15;1.42;;;27.70;97.50;27.10;101113;;;;594404;237;23181;-79
2023/08/17 10:58:45;;;;;;;1.30;1.20;;;27.40;99.10;26.90;101108;;;;593730;237;24032;-77
2023/08/17 11:01:16;;;;;;;2.23;1.03;;;27.30;99.10;27.00;101107;;;;603459;237;23055;-78
2023/08/17 11:03:41;;;;;;;2.03;1.23;;;27.40;99.90;27.10;101101;;;;593819;237;23092;-78
2023/08/17 11:06:18;;;;;;;1.83;1.20;;;27.40;99.90;27.10;101106;;;;594557;237;23064;-78
2023/08/17 11:08:55;;;;;;;2.20;1.40;;;27.40;98.20;26.70;101095;;;;595048;237;23075;-78
2023/08/17 11:11:20;;;;;;;3.73;2.03;;;27.10;99.30;26.30;101092;;;;604044;237;23051;-79
2023/08/17 11:13:49;;;;;;;2.23;1.60;;;26.50;99.90;26.10;101096;;;;594516;237;24042;-78